createdAt,value
2023-01-23T00:00:47.072Z,99619.25
2023-01-23T00:03:13.612Z,99635.13
2023-01-23T00:05:40.052Z,99629.63
2023-01-23T00:08:06.555Z,99681.78
2023-01-23T00:10:33.020Z,99682.72
2023-01-23T00:13:01.610Z,99618.44
2023-01-23T00:15:28.196Z,99582.28
2023-01-23T00:17:56.726Z,99551.06
2023-01-23T00:20:23.215Z,99597.50
2023-01-23T00:22:51.659Z,99545.81
2023-01-23T00:25:18.113Z,99503.72
2023-01-23T00:27:45.247Z,99493.59
2023-01-23T00:30:14.508Z,99497.88
2023-01-23T00:32:41.195Z,99519.09
2023-01-23T00:35:07.815Z,99508.34
2023-01-23T00:37:36.605Z,99481.59
2023-01-23T00:40:05.494Z,99495.25
2023-01-23T00:42:33.900Z,99520.22
2023-01-23T00:45:00.364Z,99605.47
2023-01-23T00:47:26.881Z,99578.28
2023-01-23T00:49:57.673Z,99556.66
2023-01-23T00:52:24.639Z,99535.13
2023-01-23T00:54:53.121Z,99540.97
2023-01-23T00:57:21.886Z,99590.28
2023-01-23T00:59:48.421Z,99518.53
2023-01-23T01:02:14.895Z,99469.59
2023-01-23T01:04:41.348Z,99487.53
2023-01-23T01:07:07.842Z,99511.63
2023-01-23T01:09:34.306Z,99503.31
2023-01-23T01:12:00.813Z,99478.03
2023-01-23T01:14:27.291Z,99435.59
2023-01-23T01:16:53.777Z,99406.50
2023-01-23T01:19:22.287Z,99416.00
2023-01-23T01:21:50.616Z,99400.31
2023-01-23T01:24:19.296Z,99384.91
2023-01-23T01:26:47.663Z,99401.63
2023-01-23T01:29:15.806Z,99429.06
2023-01-23T01:31:42.291Z,99386.72
2023-01-23T01:34:09.652Z,99384.28
2023-01-23T01:36:36.119Z,99380.00
2023-01-23T01:39:02.625Z,99411.09
2023-01-23T01:41:29.091Z,99450.25
2023-01-23T01:43:57.213Z,99432.97
2023-01-23T01:46:25.158Z,99407.66
2023-01-23T01:49:00.992Z,99398.97
2023-01-23T01:51:27.469Z,99369.22
2023-01-23T01:54:01.957Z,99332.47
2023-01-23T01:56:30.180Z,99336.63
2023-01-23T01:58:57.089Z,99346.28
2023-01-23T02:01:23.635Z,99384.59
2023-01-23T02:03:51.354Z,99417.63
2023-01-23T02:06:18.113Z,99440.16
2023-01-23T02:08:59.459Z,99411.41
2023-01-23T02:11:25.895Z,99365.97
2023-01-23T02:13:55.343Z,99338.78
2023-01-23T02:16:23.505Z,99280.38
2023-01-23T02:18:53.934Z,99238.69
2023-01-23T02:21:24.992Z,99220.94
2023-01-23T02:24:03.991Z,99205.75
2023-01-23T02:26:44.128Z,99253.53
2023-01-23T02:29:12.449Z,99290.59
2023-01-23T02:31:39.304Z,99301.06
2023-01-23T02:34:05.959Z,99299.75
2023-01-23T02:36:33.775Z,99258.66
2023-01-23T02:39:00.672Z,99218.44
2023-01-23T02:41:46.410Z,99212.53
2023-01-23T02:44:16.567Z,99206.16
2023-01-23T02:46:43.059Z,99215.00
2023-01-23T02:49:09.842Z,99251.66
2023-01-23T02:51:36.393Z,99230.38
2023-01-23T02:54:02.916Z,99244.25
2023-01-23T02:56:29.423Z,99331.59
2023-01-23T02:59:14.736Z,99366.13
2023-01-23T03:01:41.193Z,99463.09
2023-01-23T03:04:07.760Z,99474.69
2023-01-23T03:06:38.326Z,99486.41
2023-01-23T03:09:05.728Z,99465.25
2023-01-23T03:11:32.621Z,99456.13
2023-01-23T03:13:59.261Z,99490.84
2023-01-23T03:16:27.595Z,99486.00
2023-01-23T03:18:56.423Z,99447.59
2023-01-23T03:21:23.115Z,99466.34
2023-01-23T03:23:49.670Z,99458.50
2023-01-23T03:26:18.005Z,99419.06
2023-01-23T03:29:03.381Z,99403.25
2023-01-23T03:31:30.534Z,99424.50
2023-01-23T03:33:57.068Z,99393.44
2023-01-23T03:36:23.656Z,99321.41
2023-01-23T03:39:08.532Z,99300.34
2023-01-23T03:41:35.025Z,99317.50
2023-01-23T03:44:01.568Z,99347.28
2023-01-23T03:46:28.095Z,99358.91
2023-01-23T03:48:54.596Z,99356.28
2023-01-23T03:51:21.120Z,99319.69
2023-01-23T03:53:47.656Z,99278.16
2023-01-23T03:56:14.161Z,99312.56
2023-01-23T03:58:40.846Z,99382.81
2023-01-23T04:01:09.144Z,99349.53
2023-01-23T04:03:36.131Z,99351.88
2023-01-23T04:06:02.651Z,99351.50
2023-01-23T04:08:29.729Z,99306.50
2023-01-23T04:11:03.487Z,99290.75
2023-01-23T04:13:30.039Z,99316.91
2023-01-23T04:15:56.560Z,99423.16
2023-01-23T04:18:23.497Z,99409.31
2023-01-23T04:20:50.073Z,99471.44
2023-01-23T04:23:16.601Z,99436.25
2023-01-23T04:25:43.079Z,99403.22
2023-01-23T04:28:09.635Z,99394.06
2023-01-23T04:30:36.913Z,99526.72
2023-01-23T04:33:03.448Z,99609.31
2023-01-23T04:35:30.081Z,99632.16
2023-01-23T04:37:56.604Z,99709.19
2023-01-23T04:40:23.136Z,99729.03
2023-01-23T04:42:49.591Z,99670.44
2023-01-23T04:45:16.166Z,99642.38
2023-01-23T04:47:42.620Z,99616.00
2023-01-23T04:50:09.592Z,99590.75
2023-01-23T04:52:38.272Z,99576.94
2023-01-23T04:55:05.840Z,99575.28
2023-01-23T04:57:32.450Z,99530.38
2023-01-23T05:00:00.414Z,99582.63
2023-01-23T05:02:27.308Z,99585.06
2023-01-23T05:04:53.779Z,99578.28
2023-01-23T05:07:20.283Z,99584.31
2023-01-23T05:09:46.754Z,99554.53
2023-01-23T05:12:13.304Z,99534.31
2023-01-23T05:14:39.878Z,99527.78
2023-01-23T05:17:06.322Z,99514.94
2023-01-23T05:19:32.919Z,99487.78
2023-01-23T05:21:59.395Z,99474.03
2023-01-23T05:24:25.864Z,99439.09
2023-01-23T05:26:54.589Z,99390.31
2023-01-23T05:29:21.860Z,99353.69
2023-01-23T05:31:49.052Z,99309.03
2023-01-23T05:34:15.577Z,99278.47
2023-01-23T05:36:42.073Z,99250.41
2023-01-23T05:39:08.515Z,99211.31
2023-01-23T05:41:35.023Z,99196.19
2023-01-23T05:44:01.484Z,99242.09
2023-01-23T05:46:28.004Z,99201.09
2023-01-23T05:48:54.535Z,99187.75
2023-01-23T05:51:21.195Z,99168.31
2023-01-23T05:53:49.551Z,99163.59
2023-01-23T05:56:16.003Z,99130.28
2023-01-23T05:58:42.552Z,99108.00
2023-01-23T06:01:09.023Z,99099.59
2023-01-23T06:03:35.524Z,99074.81
2023-01-23T06:06:02.309Z,99075.56
2023-01-23T06:08:28.780Z,99058.69
2023-01-23T06:10:58.514Z,99048.31
2023-01-23T06:13:26.076Z,99051.09
2023-01-23T06:15:53.013Z,99051.09
2023-01-23T06:18:19.909Z,99047.06
2023-01-23T06:20:46.924Z,99059.25
2023-01-23T06:23:13.871Z,99043.75
2023-01-23T06:25:40.934Z,99052.13
2023-01-23T06:28:08.216Z,99008.34
2023-01-23T06:30:34.750Z,98981.66
2023-01-23T06:33:01.356Z,98955.72
2023-01-23T06:35:27.798Z,98955.97
2023-01-23T06:37:59.231Z,98992.00
2023-01-23T06:40:25.864Z,98983.94
2023-01-23T06:42:54.825Z,98948.69
2023-01-23T06:45:22.502Z,98954.72
2023-01-23T06:47:49.055Z,98959.38
2023-01-23T06:50:16.400Z,98940.47
2023-01-23T06:52:45.001Z,98923.94
2023-01-23T06:55:13.191Z,98920.69
2023-01-23T06:57:40.995Z,98911.00
2023-01-23T07:00:07.915Z,98920.75
2023-01-23T07:02:34.402Z,98912.69
2023-01-23T07:05:00.897Z,98917.53
2023-01-23T07:07:27.421Z,98918.38
2023-01-23T07:09:53.883Z,98906.22
2023-01-23T07:12:20.360Z,98909.28
2023-01-23T07:14:46.822Z,98902.38
2023-01-23T07:17:13.306Z,98916.00
2023-01-23T07:19:39.799Z,98908.88
2023-01-23T07:22:06.308Z,98922.06
2023-01-23T07:24:34.882Z,98919.25
2023-01-23T07:27:03.367Z,98925.69
2023-01-23T07:29:32.264Z,98918.81
2023-01-23T07:32:01.082Z,98924.09
2023-01-23T07:34:28.054Z,98929.34
2023-01-23T07:36:54.540Z,98937.06
2023-01-23T07:39:21.036Z,98935.22
2023-01-23T07:41:47.530Z,98966.47
2023-01-23T07:44:18.121Z,98968.66
2023-01-23T07:46:47.868Z,98979.84
2023-01-23T07:49:14.887Z,98979.81
2023-01-23T07:51:43.468Z,98970.91
2023-01-23T07:54:10.259Z,98947.19
2023-01-23T07:56:36.746Z,98936.63
2023-01-23T07:59:05.479Z,98922.00
2023-01-23T08:01:32.035Z,98915.94
2023-01-23T08:03:58.612Z,98908.38
2023-01-23T08:06:25.089Z,98901.69
2023-01-23T08:08:51.655Z,98900.44
2023-01-23T08:11:18.119Z,98885.19
2023-01-23T08:13:48.333Z,98875.63
2023-01-23T08:16:14.852Z,98865.84
2023-01-23T08:18:41.312Z,98866.28
2023-01-23T08:21:07.802Z,98859.53
2023-01-23T08:23:34.545Z,98849.16
2023-01-23T08:26:04.068Z,98845.06
2023-01-23T08:28:31.405Z,98848.28
2023-01-23T08:31:06.543Z,98844.78
2023-01-23T08:33:34.268Z,98838.84
2023-01-23T08:36:01.053Z,98821.75
2023-01-23T08:38:27.578Z,98817.28
2023-01-23T08:40:55.359Z,98819.97
2023-01-23T08:43:22.050Z,98821.75
2023-01-23T08:45:50.226Z,98819.06
2023-01-23T08:48:17.803Z,98820.63
2023-01-23T08:50:44.745Z,98805.78
2023-01-23T08:53:12.006Z,98793.91
2023-01-23T08:55:39.095Z,98780.44
2023-01-23T08:58:06.431Z,98781.53
2023-01-23T09:00:33.236Z,98778.47
2023-01-23T09:03:00.922Z,98776.50
2023-01-23T09:05:27.684Z,98752.81
2023-01-23T09:07:54.205Z,98741.25
2023-01-23T09:10:20.804Z,98722.09
2023-01-23T09:12:47.506Z,98717.97
2023-01-23T09:15:13.982Z,98702.81
2023-01-23T09:17:40.918Z,98690.91
2023-01-23T09:20:07.873Z,98676.31
2023-01-23T09:22:34.346Z,98677.06
2023-01-23T09:25:03.032Z,98659.25
2023-01-23T09:27:30.312Z,98660.38
2023-01-23T09:29:57.680Z,98655.22
2023-01-23T09:32:24.152Z,98641.53
2023-01-23T09:34:50.723Z,98615.78
2023-01-23T09:37:19.392Z,98596.31
2023-01-23T09:39:45.997Z,98597.63
2023-01-23T09:42:17.946Z,98596.13
2023-01-23T09:44:49.083Z,98598.28
2023-01-23T09:47:18.432Z,98595.75
2023-01-23T09:49:58.361Z,98591.16
2023-01-23T09:52:30.922Z,98568.09
2023-01-23T09:55:05.627Z,98558.16
2023-01-23T09:57:38.859Z,98545.00
2023-01-23T10:00:06.728Z,98541.53
2023-01-23T10:02:34.151Z,98525.97
2023-01-23T10:05:02.969Z,98518.91
2023-01-23T10:07:38.643Z,98529.78
2023-01-23T10:10:08.134Z,98517.59
2023-01-23T10:12:40.869Z,98492.97
2023-01-23T10:15:07.421Z,98487.59
2023-01-23T10:17:41.308Z,98460.81
2023-01-23T10:20:13.625Z,98461.59
2023-01-23T10:22:47.342Z,98455.41
2023-01-23T10:25:25.600Z,98427.53
2023-01-23T10:27:56.423Z,98418.16
2023-01-23T10:30:24.155Z,98392.69
2023-01-23T10:33:00.169Z,98388.66
2023-01-23T10:35:47.280Z,98371.31
2023-01-23T10:38:16.785Z,98389.94
2023-01-23T10:41:02.183Z,98377.75
2023-01-23T10:43:28.681Z,98374.09
2023-01-23T10:45:55.184Z,98373.53
2023-01-23T10:48:28.732Z,98358.91
2023-01-23T10:50:58.677Z,98355.22
2023-01-23T10:53:27.116Z,98345.88
2023-01-23T10:55:55.737Z,98336.19
2023-01-23T10:58:25.289Z,98333.59
2023-01-23T11:00:53.957Z,98341.50
2023-01-23T11:03:20.380Z,98315.09
2023-01-23T11:06:07.220Z,98317.78
2023-01-23T11:08:38.198Z,98310.88
2023-01-23T11:11:18.858Z,98297.28
2023-01-23T11:13:49.999Z,98285.19
2023-01-23T11:16:18.237Z,98272.81
2023-01-23T11:18:55.253Z,98265.75
2023-01-23T11:21:23.239Z,98267.41
2023-01-23T11:24:09.067Z,98258.41
2023-01-23T11:26:36.744Z,98264.34
2023-01-23T11:29:18.983Z,98250.28
2023-01-23T11:31:46.782Z,98255.88
2023-01-23T11:34:14.878Z,98256.47
2023-01-23T11:36:46.193Z,98244.84
2023-01-23T11:39:19.312Z,98239.00
2023-01-23T11:41:46.297Z,98236.88
2023-01-23T11:44:22.690Z,98241.44
2023-01-23T11:46:49.933Z,98236.63
2023-01-23T11:49:28.372Z,98238.53
2023-01-23T11:52:17.784Z,98222.63
2023-01-23T11:55:02.888Z,98217.34
2023-01-23T11:57:29.359Z,98205.94
2023-01-23T11:59:58.853Z,98218.72
2023-01-23T12:02:31.561Z,98198.28
2023-01-23T12:05:00.815Z,98196.19
2023-01-23T12:07:27.632Z,98211.63
2023-01-23T12:09:57.083Z,98203.16
2023-01-23T12:12:29.563Z,98195.19
2023-01-23T12:15:05.593Z,98195.19
2023-01-23T12:17:40.909Z,98196.03
2023-01-23T12:20:47.548Z,98200.06
2023-01-23T12:23:14.067Z,98197.16
2023-01-23T12:25:42.613Z,98194.22
2023-01-23T12:28:20.217Z,98193.44
2023-01-23T12:30:50.297Z,98191.34
2023-01-23T12:33:19.544Z,98183.09
2023-01-23T12:36:00.789Z,98177.75
2023-01-23T12:38:46.043Z,98163.94
2023-01-23T12:41:15.313Z,98153.53
2023-01-23T12:43:55.756Z,98147.16
2023-01-23T12:46:30.511Z,98164.22
2023-01-23T12:49:00.023Z,98150.66
2023-01-23T12:51:34.575Z,98157.03
2023-01-23T12:54:04.481Z,98142.63
2023-01-23T12:56:33.668Z,98141.56
2023-01-23T12:59:10.586Z,98142.63
2023-01-23T13:01:50.007Z,98144.75
2023-01-23T13:04:28.805Z,98142.31
2023-01-23T13:06:55.753Z,98117.84
2023-01-23T13:09:31.492Z,98133.03
2023-01-23T13:12:04.057Z,98126.13
2023-01-23T13:14:36.821Z,98120.25
2023-01-23T13:17:32.985Z,98119.19
2023-01-23T13:20:37.258Z,98093.63
2023-01-23T13:23:22.631Z,98097.34
2023-01-23T13:25:49.649Z,98112.25
2023-01-23T13:28:27.707Z,98091.75
2023-01-23T13:31:00.351Z,98102.66
2023-01-23T13:33:29.846Z,98090.97
2023-01-23T13:35:58.695Z,98076.59
2023-01-23T13:38:33.389Z,98078.72
2023-01-23T13:41:05.836Z,98067.00
2023-01-23T13:43:41.988Z,98061.69
2023-01-23T13:46:31.716Z,98060.88
2023-01-23T14:21:41.203Z,97973.78
2023-01-23T14:24:21.305Z,97981.28
2023-01-23T14:26:51.692Z,97974.06
2023-01-23T14:29:19.171Z,97970.06
2023-01-23T14:31:47.392Z,97968.47
2023-01-23T14:34:24.348Z,97958.59
2023-01-23T14:37:02.662Z,97969.53
2023-01-23T14:39:30.492Z,97970.59
2023-01-23T14:42:01.998Z,97967.13
2023-01-23T14:44:39.130Z,97969.53
2023-01-23T14:47:05.768Z,97973.53
2023-01-23T14:49:36.474Z,97968.47
2023-01-23T14:52:04.734Z,97973.22
2023-01-23T14:54:33.350Z,97973.00
2023-01-23T14:57:08.150Z,97966.31
2023-01-23T14:59:38.383Z,97957.75
2023-01-23T15:02:26.406Z,97961.78
2023-01-23T15:05:11.495Z,97967.13
2023-01-23T15:07:44.761Z,97953.28
2023-01-23T15:10:18.661Z,97951.16
2023-01-23T15:12:50.164Z,97950.88
2023-01-23T15:15:21.620Z,97942.09
2023-01-23T15:17:48.713Z,97949.53
2023-01-23T15:20:36.520Z,97950.88
2023-01-23T15:23:18.072Z,97945.56
2023-01-23T15:25:47.743Z,97933.84
2023-01-23T15:28:32.521Z,97937.03
2023-01-23T15:30:59.870Z,97946.06
2023-01-23T15:33:28.927Z,97937.28
2023-01-23T15:36:02.306Z,97935.97
2023-01-23T15:38:29.023Z,97941.28
2023-01-23T15:40:55.517Z,97941.28
2023-01-23T15:43:22.073Z,97934.03
2023-01-23T15:45:48.723Z,97938.03
2023-01-23T15:48:15.191Z,97935.91
2023-01-23T15:50:41.769Z,97925.78
2023-01-23T15:53:12.499Z,97907.41
2023-01-23T15:55:39.559Z,97911.94
2023-01-23T15:58:06.109Z,97918.88
2023-01-23T16:00:32.671Z,97907.16
2023-01-23T16:02:59.595Z,97906.00
2023-01-23T16:05:32.240Z,97914.03
2023-01-23T16:08:01.211Z,97917.25
2023-01-23T16:10:35.685Z,97909.25
2023-01-23T16:13:02.698Z,97910.84
2023-01-23T16:15:30.504Z,97909.78
2023-01-23T16:17:57.253Z,97904.47
2023-01-23T16:20:26.852Z,97911.38
2023-01-23T16:22:56.029Z,97908.19
2023-01-23T16:25:43.362Z,97900.13
2023-01-23T16:28:14.176Z,97906.25
2023-01-23T16:30:40.878Z,97892.66
2023-01-23T16:33:07.685Z,97899.06
2023-01-23T16:35:34.609Z,97893.75
2023-01-23T16:38:01.331Z,97896.94
2023-01-23T16:40:30.553Z,97906.00
2023-01-23T16:42:57.072Z,97900.13
2023-01-23T16:45:25.127Z,97885.69
2023-01-23T16:47:51.679Z,97884.06
2023-01-23T16:50:22.007Z,97892.63
2023-01-23T16:53:01.265Z,97881.44
2023-01-23T16:55:30.654Z,97870.78
2023-01-23T16:57:58.351Z,97867.34
2023-01-23T17:00:33.600Z,97858.00
2023-01-23T17:03:04.022Z,97857.44
2023-01-23T17:05:33.384Z,97851.31
2023-01-23T17:08:01.963Z,97842.25
2023-01-23T17:10:41.222Z,97846.19
2023-01-23T17:13:13.600Z,97839.81
2023-01-23T17:15:40.326Z,97841.91
2023-01-23T17:18:06.898Z,97835.19
2023-01-23T17:20:33.384Z,97832.16
2023-01-23T17:23:01.868Z,97828.72
2023-01-23T17:25:28.408Z,97826.88
2023-01-23T17:28:11.873Z,97824.81
2023-01-23T17:30:40.359Z,97818.34
2023-01-23T17:33:13.840Z,97811.94
2023-01-23T17:35:40.297Z,97817.28
2023-01-23T17:38:13.018Z,97800.19
2023-01-23T17:40:40.667Z,97799.69
2023-01-23T17:43:07.151Z,97790.03
2023-01-23T17:45:33.752Z,97793.75
2023-01-23T17:48:01.446Z,97776.34
2023-01-23T17:50:27.888Z,97782.16
2023-01-23T17:52:56.787Z,97779.25
2023-01-23T17:55:25.484Z,97771.25
2023-01-23T17:57:51.959Z,97763.75
2023-01-23T18:00:19.760Z,97762.41
2023-01-23T18:02:48.462Z,97759.44
2023-01-23T18:05:15.301Z,97763.13
2023-01-23T18:07:53.457Z,97762.09
2023-01-23T18:10:22.091Z,97755.63
2023-01-23T18:12:48.749Z,97751.31
2023-01-23T18:15:19.853Z,97749.63
2023-01-23T18:17:56.627Z,97728.72
2023-01-23T18:20:23.350Z,97726.13
2023-01-23T18:22:50.021Z,97722.31
2023-01-23T18:25:17.275Z,97713.16
2023-01-23T18:27:46.412Z,97702.50
2023-01-23T18:30:19.640Z,97696.81
2023-01-23T18:32:48.984Z,97685.78
2023-01-23T18:35:24.590Z,97687.38
2023-01-23T18:38:00.827Z,97673.38
2023-01-23T18:40:29.376Z,97667.38
2023-01-23T18:42:59.404Z,97668.13
2023-01-23T18:45:27.571Z,97671.31
2023-01-23T18:47:54.663Z,97673.97
2023-01-23T18:50:25.376Z,97682.09
2023-01-23T18:52:57.813Z,97675.66
2023-01-23T18:55:27.144Z,97650.28
2023-01-23T18:58:18.299Z,97659.47
2023-01-23T19:00:49.284Z,97669.97
2023-01-23T19:03:17.233Z,97660.16
2023-01-23T19:05:44.453Z,97640.63
2023-01-23T19:08:20.489Z,97635.63
2023-01-23T19:10:49.222Z,97625.84
2023-01-23T19:13:18.681Z,97607.13
2023-01-23T19:15:54.686Z,97599.13
2023-01-23T19:18:40.498Z,97597.03
2023-01-23T19:21:26.823Z,97578.34
2023-01-23T19:23:56.262Z,97552.16
2023-01-23T19:26:25.373Z,97550.81
2023-01-23T19:28:51.980Z,97535.25
2023-01-23T19:31:23.962Z,97530.00
2023-01-23T19:33:52.775Z,97534.53
2023-01-23T19:36:21.193Z,97543.91
2023-01-23T19:38:47.872Z,97538.28
2023-01-23T19:41:21.512Z,97534.53
2023-01-23T19:43:48.739Z,97529.69
2023-01-23T19:46:15.350Z,97530.22
2023-01-23T19:48:41.904Z,97528.63
2023-01-23T19:51:18.264Z,97537.13
2023-01-23T19:53:45.445Z,97551.69
2023-01-23T19:56:13.043Z,97549.66
2023-01-23T19:58:39.955Z,97545.38
2023-01-23T20:01:14.443Z,97534.03
2023-01-23T20:03:41.162Z,97549.84
2023-01-23T20:06:07.818Z,97531.94
2023-01-23T20:08:34.281Z,97551.66
2023-01-23T20:11:00.767Z,97536.34
2023-01-23T20:13:27.275Z,97542.50
2023-01-23T20:15:53.765Z,97529.38
2023-01-23T20:18:22.447Z,97526.19
2023-01-23T20:20:48.915Z,97538.66
2023-01-23T20:23:15.405Z,97542.50
2023-01-23T20:25:41.864Z,97547.25
2023-01-23T20:28:11.249Z,97532.91
2023-01-23T20:30:38.365Z,97542.44
2023-01-23T20:33:06.675Z,97530.38
2023-01-23T20:35:33.162Z,97511.97
2023-01-23T20:37:59.709Z,97511.97
2023-01-23T20:40:27.548Z,97541.44
2023-01-23T20:42:54.012Z,97526.81
2023-01-23T20:45:20.751Z,97528.50
2023-01-23T20:47:47.364Z,97528.00
2023-01-23T20:50:13.812Z,97526.59
2023-01-23T20:53:01.035Z,97520.69
2023-01-23T20:55:29.342Z,97521.25
2023-01-23T20:58:14.388Z,97501.28
2023-01-23T21:00:42.939Z,97503.66
2023-01-23T21:03:09.482Z,97519.88
2023-01-23T21:05:35.981Z,97512.66
2023-01-23T21:08:02.484Z,97493.03
2023-01-23T21:10:28.962Z,97495.53
2023-01-23T21:12:55.438Z,97493.94
2023-01-23T21:15:22.245Z,97494.16
2023-01-23T21:17:48.952Z,97485.44
2023-01-23T21:20:15.763Z,97482.84
2023-01-23T21:22:42.234Z,97483.66
2023-01-23T21:25:08.747Z,97499.97
2023-01-23T21:27:36.120Z,97501.34
2023-01-23T21:30:04.045Z,97497.09
2023-01-23T21:32:30.576Z,97487.19
2023-01-23T21:34:57.099Z,97480.19
2023-01-23T21:37:24.468Z,97475.53
2023-01-23T21:39:51.489Z,97482.88
2023-01-23T21:42:17.932Z,97490.19
2023-01-23T21:44:44.474Z,97485.44
2023-01-23T21:47:10.963Z,97492.38
2023-01-23T21:49:37.469Z,97487.53
2023-01-23T21:52:04.074Z,97472.19
2023-01-23T21:54:30.554Z,97485.06
2023-01-23T21:56:57.085Z,97473.94
2023-01-23T21:59:23.656Z,97482.06
2023-01-23T22:01:52.125Z,97481.09
2023-01-23T22:04:22.533Z,97483.25
2023-01-23T22:06:52.901Z,97475.22
2023-01-23T22:09:21.435Z,97465.63
2023-01-23T22:11:48.619Z,97460.78
2023-01-23T22:14:16.249Z,97454.13
2023-01-23T22:16:48.933Z,97462.75
2023-01-23T22:19:16.965Z,97432.53
2023-01-23T22:21:44.382Z,97433.50
2023-01-23T22:24:10.913Z,97435.78
2023-01-23T22:26:37.424Z,97444.13
2023-01-23T22:29:04.614Z,97438.97
2023-01-23T22:31:31.899Z,97456.09
2023-01-23T22:33:58.516Z,97449.97
2023-01-23T22:36:25.016Z,97438.66
2023-01-23T22:38:52.176Z,97445.38
2023-01-23T22:41:19.018Z,97433.66
2023-01-23T22:43:45.465Z,97424.16
2023-01-23T22:46:17.698Z,97425.34
2023-01-23T22:48:44.144Z,97418.81
2023-01-23T22:51:20.085Z,97423.06
2023-01-23T22:53:48.470Z,97417.81
2023-01-23T22:56:15.429Z,97425.44
2023-01-23T22:58:51.033Z,97405.13
2023-01-23T23:01:18.012Z,97409.47
2023-01-23T23:03:45.135Z,97411.41
2023-01-23T23:06:13.449Z,97411.41
2023-01-23T23:08:40.640Z,97409.03
2023-01-23T23:11:12.294Z,97409.25
2023-01-23T23:13:39.734Z,97405.34
2023-01-23T23:16:08.067Z,97390.38
2023-01-23T23:18:34.886Z,97372.13
2023-01-23T23:21:03.264Z,97376.41
2023-01-23T23:23:29.797Z,97373.28
2023-01-23T23:25:56.752Z,97379.00
2023-01-23T23:28:24.135Z,97394.16
2023-01-23T23:30:51.145Z,97397.34
2023-01-23T23:33:18.025Z,97374.94
2023-01-23T23:35:44.944Z,97356.78
2023-01-23T23:38:11.891Z,97362.34
2023-01-23T23:40:39.076Z,97360.00
2023-01-23T23:43:06.008Z,97367.31
2023-01-23T23:45:32.538Z,97393.13
2023-01-23T23:47:59.203Z,97406.00
2023-01-23T23:50:25.677Z,97391.00
2023-01-23T23:52:52.111Z,97380.03
2023-01-23T23:55:18.948Z,97380.69
2023-01-23T23:57:45.598Z,97366.66
